Time;durP1;ratioP1;P1;durP2;ratioP2;P2;SDS_P1;SDS_P2;PMS_P1;PMS_P2;Temp;Humidity;BMP_temperature;BMP_pressure;BME280_temperature;BME280_humidity;BME280_pressure;Samples;Min_cycle;Max_cycle;Signal;HPM_P1;HPM_P2
2024/02/16 00:00:46;;;;;;;3.60;2.50;;;10.30;99.90;;;;;;5037710;28;20483;-79
2024/02/16 00:03:12;;;;;;;3.10;2.08;;;10.30;99.90;;;;;;5055100;28;20439;-80
2024/02/16 00:05:37;;;;;;;2.30;2.10;;;10.30;99.90;;;;;;5053815;28;20385;-81
2024/02/16 00:08:03;;;;;;;3.90;2.50;;;10.30;99.90;;;;;;5038633;28;20400;-81
2024/02/16 00:10:29;;;;;;;3.08;2.55;;;10.20;99.90;;;;;;5037034;28;20986;-81
2024/02/16 00:12:54;;;;;;;2.40;2.20;;;10.20;99.90;;;;;;5055392;28;20377;-81
2024/02/16 00:15:20;;;;;;;2.88;2.05;;;10.20;99.90;;;;;;5053384;28;20405;-79
2024/02/16 00:17:46;;;;;;;2.40;2.10;;;10.20;99.90;;;;;;5051892;28;20897;-80
2024/02/16 00:20:14;;;;;;;3.37;1.93;;;10.20;99.90;;;;;;5041594;28;20388;-82
2024/02/16 00:22:40;;;;;;;3.63;1.98;;;10.20;99.90;;;;;;5042855;28;20392;-80
2024/02/16 00:25:06;;;;;;;2.15;1.80;;;10.30;99.90;;;;;;5053826;28;20482;-80
2024/02/16 00:27:31;;;;;;;1.90;1.80;;;10.40;99.90;;;;;;5046376;28;20389;-80
2024/02/16 00:29:57;;;;;;;3.00;2.30;;;10.40;99.90;;;;;;5054903;28;20401;-79
2024/02/16 00:32:24;;;;;;;2.07;1.90;;;10.50;99.90;;;;;;5036466;28;20893;-80
2024/02/16 00:34:52;;;;;;;2.40;2.05;;;10.50;99.90;;;;;;5023720;28;20409;-79
2024/02/16 00:37:17;;;;;;;2.20;2.00;;;10.40;99.90;;;;;;5034264;28;20474;-80
2024/02/16 00:39:43;;;;;;;2.90;2.20;;;10.40;99.90;;;;;;5035004;28;20457;-80
2024/02/16 00:42:08;;;;;;;2.70;2.20;;;10.40;99.90;;;;;;5017751;28;20771;-79
2024/02/16 00:44:34;;;;;;;4.00;2.50;;;10.30;99.90;;;;;;5026714;28;20416;-80
2024/02/16 00:47:00;;;;;;;3.08;2.75;;;10.40;99.90;;;;;;5052722;28;20397;-80
2024/02/16 00:49:26;;;;;;;2.72;2.30;;;10.30;99.90;;;;;;5035319;28;20427;-80
2024/02/16 00:51:51;;;;;;;5.40;2.85;;;10.30;99.90;;;;;;5034268;28;20398;-80
2024/02/16 00:54:17;;;;;;;3.30;2.97;;;10.40;99.90;;;;;;5017314;28;20506;-80
2024/02/16 00:56:43;;;;;;;3.35;3.05;;;10.30;99.90;;;;;;5034261;28;20482;-80
2024/02/16 00:59:09;;;;;;;3.30;3.00;;;10.30;99.90;;;;;;5018502;28;20423;-79
2024/02/16 01:01:35;;;;;;;3.33;2.90;;;10.40;99.90;;;;;;5034142;28;20399;-79
2024/02/16 01:04:02;;;;;;;3.50;2.83;;;10.50;99.90;;;;;;5026030;28;20398;-79
2024/02/16 01:06:28;;;;;;;4.28;3.00;;;10.50;99.90;;;;;;5049742;28;20393;-79
2024/02/16 01:08:53;;;;;;;3.83;2.92;;;10.40;99.90;;;;;;5055707;28;20390;-79
2024/02/16 01:11:19;;;;;;;4.75;2.60;;;10.30;99.90;;;;;;5054305;28;20901;-78
2024/02/16 01:13:46;;;;;;;3.08;2.60;;;10.40;99.90;;;;;;5035469;28;20405;-79
2024/02/16 01:16:11;;;;;;;3.00;2.45;;;10.40;99.90;;;;;;5034308;28;20454;-79
2024/02/16 01:18:37;;;;;;;2.95;2.65;;;10.40;99.90;;;;;;5053847;28;20377;-81
2024/02/16 01:21:03;;;;;;;3.73;2.67;;;10.40;99.90;;;;;;5049364;28;20440;-79
2024/02/16 01:23:29;;;;;;;3.60;2.30;;;10.40;99.90;;;;;;5033770;28;20415;-79
2024/02/16 01:25:54;;;;;;;3.40;2.22;;;10.40;99.90;;;;;;5044951;28;20406;-79
2024/02/16 01:28:20;;;;;;;3.60;2.70;;;10.40;99.90;;;;;;5033562;28;20462;-79
2024/02/16 01:30:45;;;;;;;3.93;2.37;;;10.40;99.90;;;;;;5035942;28;20383;-79
2024/02/16 01:33:11;;;;;;;3.53;2.20;;;10.40;99.90;;;;;;5052270;28;20389;-79
2024/02/16 01:35:37;;;;;;;3.30;1.92;;;10.30;99.90;;;;;;5035461;28;20770;-79
2024/02/16 01:38:02;;;;;;;2.27;2.07;;;10.40;99.90;;;;;;5054067;28;20381;-79
2024/02/16 01:40:28;;;;;;;3.70;2.00;;;10.40;99.90;;;;;;5036066;28;20391;-78
2024/02/16 01:42:54;;;;;;;3.93;2.00;;;10.30;99.90;;;;;;5035306;28;20419;-79
2024/02/16 01:45:20;;;;;;;2.47;2.10;;;10.30;99.90;;;;;;5035157;28;20437;-79
2024/02/16 01:47:49;;;;;;;2.03;1.83;;;10.40;99.90;;;;;;5033415;28;20434;-79
2024/02/16 01:50:16;;;;;;;2.72;2.20;;;10.40;99.90;;;;;;5049651;28;20422;-79
2024/02/16 01:52:46;;;;;;;3.40;2.03;;;10.40;99.90;;;;;;5033608;28;20390;-78
2024/02/16 01:55:12;;;;;;;2.80;1.80;;;10.50;99.90;;;;;;5048635;28;21020;-78
2024/02/16 01:57:46;;;;;;;3.30;1.80;;;10.50;99.90;;;;;;5053635;28;20496;-78
2024/02/16 02:00:14;;;;;;;2.70;1.80;;;10.50;99.90;;;;;;5052992;28;20422;-80
2024/02/16 02:02:40;;;;;;;3.13;1.90;;;10.50;99.90;;;;;;5053156;28;20472;-78
2024/02/16 02:05:06;;;;;;;2.08;1.88;;;10.50;99.90;;;;;;5050941;28;20389;-79
2024/02/16 02:07:32;;;;;;;3.30;1.70;;;10.50;99.90;;;;;;5053264;28;20386;-81
2024/02/16 02:09:58;;;;;;;2.40;2.03;;;10.50;99.90;;;;;;5033663;28;20924;-79
2024/02/16 02:12:24;;;;;;;3.40;2.00;;;10.40;99.90;;;;;;5035223;28;20392;-78
2024/02/16 02:14:50;;;;;;;2.40;2.20;;;10.40;99.90;;;;;;5052683;28;20480;-79
2024/02/16 02:17:17;;;;;;;2.83;2.27;;;10.30;99.90;;;;;;5041918;28;20945;-81
2024/02/16 02:19:42;;;;;;;2.40;1.90;;;10.20;99.90;;;;;;5033643;28;20420;-81
2024/02/16 02:22:20;;;;;;;2.73;1.90;;;10.20;99.90;;;;;;5034268;28;20391;-80
2024/02/16 02:24:47;;;;;;;2.23;1.80;;;10.30;99.90;;;;;;5033792;28;20480;-81
2024/02/16 02:27:13;;;;;;;3.60;2.07;;;10.30;99.90;;;;;;5051899;28;20389;-80
2024/02/16 02:29:40;;;;;;;2.78;1.80;;;10.30;99.90;;;;;;5035345;28;20424;-80
2024/02/16 02:32:06;;;;;;;1.60;1.50;;;10.30;99.90;;;;;;5051020;28;20398;-81
2024/02/16 02:34:31;;;;;;;2.50;1.80;;;10.30;99.90;;;;;;5053149;28;20463;-81
2024/02/16 02:36:57;;;;;;;2.30;1.77;;;10.30;99.90;;;;;;5091293;23;20432;-76
2024/02/16 02:39:23;;;;;;;1.90;1.60;;;10.30;99.90;;;;;;5049677;28;20469;-77
2024/02/16 02:41:48;;;;;;;3.90;1.97;;;10.30;99.90;;;;;;5051913;28;20921;-77
2024/02/16 02:44:14;;;;;;;2.07;1.73;;;10.30;99.90;;;;;;5053436;28;20757;-77
2024/02/16 02:46:39;;;;;;;2.08;1.60;;;10.30;99.90;;;;;;5045049;28;20416;-77
2024/02/16 02:49:05;;;;;;;3.30;1.70;;;10.30;99.90;;;;;;5033889;28;20528;-77
2024/02/16 02:51:31;;;;;;;1.90;1.50;;;10.40;99.90;;;;;;5033500;28;20413;-77
2024/02/16 02:53:56;;;;;;;2.67;1.57;;;10.40;99.90;;;;;;5036111;28;20770;-77
2024/02/16 02:56:22;;;;;;;1.40;1.30;;;10.40;99.90;;;;;;5034977;28;20482;-77
2024/02/16 02:58:47;;;;;;;2.35;1.83;;;10.40;99.90;;;;;;5017913;28;20379;-77
2024/02/16 03:01:13;;;;;;;2.20;1.60;;;10.50;99.90;;;;;;5034439;28;20437;-77
2024/02/16 03:03:39;;;;;;;1.85;1.35;;;10.60;99.90;;;;;;5034131;28;20887;-76
2024/02/16 03:06:07;;;;;;;2.63;1.63;;;10.60;99.90;;;;;;5034098;28;20398;-77
2024/02/16 03:08:32;;;;;;;3.10;1.50;;;10.60;99.90;;;;;;5035431;28;20771;-76
2024/02/16 03:11:01;;;;;;;1.73;1.50;;;10.60;99.90;;;;;;5018007;28;20491;-77
2024/02/16 03:13:27;;;;;;;4.25;1.70;;;10.60;99.90;;;;;;5034874;28;20395;-76
2024/02/16 03:15:52;;;;;;;4.40;1.50;;;10.60;99.90;;;;;;5035181;28;20889;-76
2024/02/16 03:18:19;;;;;;;2.85;1.30;;;10.70;99.90;;;;;;5034668;28;20544;-77
2024/02/16 03:20:47;;;;;;;1.98;1.30;;;10.80;99.90;;;;;;5033425;28;20470;-77
2024/02/16 03:23:13;;;;;;;6.90;1.70;;;10.70;99.90;;;;;;5032525;28;20476;-77
2024/02/16 03:25:39;;;;;;;2.10;1.90;;;10.70;99.90;;;;;;5033111;28;20395;-78
2024/02/16 03:28:05;;;;;;;1.55;1.20;;;10.60;99.90;;;;;;5015115;28;20418;-77
2024/02/16 03:30:30;;;;;;;1.58;1.48;;;10.60;99.90;;;;;;5015957;28;20395;-77
2024/02/16 03:32:56;;;;;;;1.80;1.30;;;10.70;99.90;;;;;;5032511;28;20502;-77
2024/02/16 03:35:21;;;;;;;2.60;1.30;;;10.70;99.90;;;;;;5033457;28;20395;-78
2024/02/16 03:37:47;;;;;;;1.97;1.50;;;10.70;99.90;;;;;;5037543;28;20401;-77
2024/02/16 03:40:13;;;;;;;2.58;1.38;;;10.60;99.90;;;;;;5052667;28;20390;-76
2024/02/16 03:42:40;;;;;;;2.28;1.58;;;10.60;99.90;;;;;;5052694;28;20905;-77
2024/02/16 03:45:06;;;;;;;1.90;1.40;;;10.60;99.90;;;;;;5052429;28;20472;-77
2024/02/16 03:47:32;;;;;;;1.40;1.20;;;10.60;99.90;;;;;;5044770;28;20387;-77
2024/02/16 03:49:57;;;;;;;1.23;1.13;;;10.60;99.90;;;;;;5032784;28;20468;-77
2024/02/16 03:52:23;;;;;;;2.67;1.33;;;10.60;99.90;;;;;;5032439;28;20797;-75
2024/02/16 03:54:50;;;;;;;1.38;1.05;;;10.60;99.90;;;;;;5032298;28;20417;-77
2024/02/16 03:57:16;;;;;;;2.83;1.10;;;10.60;99.90;;;;;;5032758;28;20383;-77
2024/02/16 03:59:45;;;;;;;2.45;1.20;;;10.60;99.90;;;;;;5032037;28;20387;-77
2024/02/16 04:02:13;;;;;;;2.15;1.30;;;10.60;99.90;;;;;;5014332;28;20388;-77
2024/02/16 04:04:39;;;;;;;1.98;1.23;;;10.60;99.90;;;;;;5032785;28;20469;-78
2024/02/16 04:07:06;;;;;;;1.50;1.23;;;10.60;99.90;;;;;;5032074;28;20435;-77
2024/02/16 04:09:32;;;;;;;1.80;1.40;;;10.70;99.90;;;;;;5047372;28;20412;-77
2024/02/16 04:11:58;;;;;;;2.40;1.40;;;10.70;99.90;;;;;;5035040;28;20386;-78
2024/02/16 04:14:23;;;;;;;1.80;1.50;;;10.70;99.90;;;;;;5046168;28;20921;-77
2024/02/16 04:16:49;;;;;;;1.55;1.20;;;10.60;99.90;;;;;;5014574;28;20415;-77
2024/02/16 04:19:14;;;;;;;2.50;1.40;;;10.60;99.90;;;;;;5032117;28;20418;-78
2024/02/16 04:21:40;;;;;;;1.47;1.37;;;10.50;99.90;;;;;;5031711;28;20414;-77
2024/02/16 04:24:06;;;;;;;1.50;1.30;;;10.50;99.90;;;;;;5014133;28;20400;-77
2024/02/16 04:26:31;;;;;;;1.35;1.25;;;10.50;99.90;;;;;;5013221;28;20403;-77
2024/02/16 04:28:57;;;;;;;1.77;1.63;;;10.50;99.90;;;;;;5013403;28;20402;-78
2024/02/16 04:31:22;;;;;;;1.77;1.67;;;10.50;99.90;;;;;;5014964;28;20395;-77
2024/02/16 04:33:48;;;;;;;1.50;1.40;;;10.50;99.90;;;;;;5031882;28;20406;-78
2024/02/16 04:36:15;;;;;;;2.40;1.80;;;10.40;99.90;;;;;;5016422;28;20615;-79
2024/02/16 04:38:40;;;;;;;1.63;1.52;;;10.40;99.90;;;;;;5016310;28;20387;-79
2024/02/16 04:41:06;;;;;;;2.00;1.50;;;10.30;99.90;;;;;;5036321;28;20393;-79
2024/02/16 04:43:32;;;;;;;1.40;1.30;;;10.40;99.90;;;;;;5052118;28;20731;-79
2024/02/16 04:45:57;;;;;;;1.90;1.50;;;10.30;99.90;;;;;;5035028;28;20485;-77
2024/02/16 04:48:23;;;;;;;1.30;1.20;;;10.30;99.90;;;;;;5051712;28;20445;-77
2024/02/16 04:50:49;;;;;;;2.30;1.40;;;10.10;99.90;;;;;;5046240;28;20387;-77
2024/02/16 04:53:14;;;;;;;1.80;1.20;;;10.30;99.90;;;;;;5017509;28;20387;-77
2024/02/16 04:55:40;;;;;;;2.03;1.13;;;10.20;99.90;;;;;;5036432;28;20403;-76
2024/02/16 04:58:09;;;;;;;1.90;1.60;;;10.20;99.90;;;;;;5018647;28;20426;-77
2024/02/16 05:00:37;;;;;;;2.53;1.30;;;10.20;99.90;;;;;;5032291;28;20833;-77
2024/02/16 05:03:03;;;;;;;2.33;2.00;;;10.30;99.90;;;;;;5015823;28;20383;-77
2024/02/16 05:05:30;;;;;;;2.58;2.15;;;10.20;99.90;;;;;;5034507;28;20453;-76
2024/02/16 05:07:56;;;;;;;2.80;2.15;;;10.00;99.90;;;;;;5017742;28;20470;-76
2024/02/16 05:10:22;;;;;;;2.70;2.17;;;10.20;99.90;;;;;;5034526;28;20391;-76
2024/02/16 05:12:48;;;;;;;2.60;1.80;;;10.10;99.90;;;;;;5035358;28;20481;-80
2024/02/16 05:15:14;;;;;;;2.67;1.60;;;9.90;99.90;;;;;;5029508;28;20413;-82
2024/02/16 05:17:40;;;;;;;4.07;1.70;;;10.20;99.90;;;;;;5055724;28;20392;-83
2024/02/16 05:20:15;;;;;;;2.50;1.50;;;9.50;99.90;;;;;;5054657;28;20420;-82
2024/02/16 05:22:47;;;;;;;2.25;1.90;;;10.00;99.90;;;;;;5054806;28;20409;-80
2024/02/16 05:25:13;;;;;;;1.77;1.60;;;10.00;99.90;;;;;;5032697;28;20394;-80
2024/02/16 05:27:39;;;;;;;3.20;1.77;;;10.00;99.90;;;;;;5033892;28;20379;-81
2024/02/16 05:30:08;;;;;;;3.50;1.60;;;10.00;99.90;;;;;;5013637;28;20914;-76
2024/02/16 05:32:37;;;;;;;2.25;1.80;;;10.10;99.90;;;;;;5047444;28;20410;-80
2024/02/16 05:35:16;;;;;;;2.67;1.60;;;10.10;99.90;;;;;;5015199;28;20418;-80
2024/02/16 05:37:49;;;;;;;2.65;1.90;;;10.00;99.90;;;;;;5032545;28;20391;-80
2024/02/16 05:40:28;;;;;;;2.65;2.15;;;10.10;99.90;;;;;;5015982;28;20394;-82
2024/02/16 05:42:57;;;;;;;2.75;1.88;;;10.10;99.90;;;;;;5015835;28;20379;-82
2024/02/16 05:45:24;;;;;;;2.10;1.90;;;10.10;99.90;;;;;;5033530;28;20398;-81
2024/02/16 05:47:50;;;;;;;1.70;1.60;;;10.00;99.90;;;;;;5029018;28;20805;-82
2024/02/16 05:50:17;;;;;;;3.00;2.60;;;10.10;99.90;;;;;;5035536;28;20524;-82
2024/02/16 05:52:43;;;;;;;3.20;2.50;;;10.20;99.90;;;;;;5038908;28;20415;-81
2024/02/16 05:55:10;;;;;;;4.05;1.80;;;10.10;99.90;;;;;;5033364;28;20910;-81
2024/02/16 05:57:37;;;;;;;2.42;2.15;;;10.10;99.90;;;;;;5015985;28;20470;-83
2024/02/16 06:00:07;;;;;;;2.95;1.80;;;10.20;99.90;;;;;;5015323;28;20394;-81
2024/02/16 06:02:33;;;;;;;3.53;2.40;;;10.20;99.90;;;;;;5049688;28;20428;-82
2024/02/16 06:05:03;;;;;;;2.85;2.40;;;10.10;99.90;;;;;;5053552;28;20385;-80
2024/02/16 06:07:29;;;;;;;3.72;2.08;;;10.20;99.90;;;;;;5036925;28;20389;-81
2024/02/16 06:09:56;;;;;;;2.57;1.80;;;10.10;99.90;;;;;;5021761;28;20927;-82
2024/02/16 06:12:21;;;;;;;3.75;2.50;;;10.20;99.90;;;;;;5033647;28;20387;-81
2024/02/16 06:14:48;;;;;;;2.80;1.73;;;10.20;99.90;;;;;;5015276;28;20464;-82
2024/02/16 06:17:14;;;;;;;3.25;2.10;;;10.20;99.90;;;;;;5022403;28;20402;-80
2024/02/16 06:19:41;;;;;;;3.58;2.10;;;10.30;99.90;;;;;;5041016;28;20472;-82
2024/02/16 06:22:08;;;;;;;3.25;2.20;;;10.30;99.90;;;;;;5056682;28;20393;-82
2024/02/16 06:24:33;;;;;;;4.70;2.40;;;10.20;99.90;;;;;;5035239;28;20386;-81
2024/02/16 06:26:59;;;;;;;3.60;2.20;;;10.20;99.90;;;;;;5036794;28;20387;-81
2024/02/16 06:29:24;;;;;;;3.08;2.10;;;10.20;99.90;;;;;;5037006;28;20395;-85
2024/02/16 06:31:50;;;;;;;2.70;2.00;;;10.20;99.90;;;;;;5018165;28;20806;-79
2024/02/16 06:34:16;;;;;;;2.77;2.10;;;10.30;99.90;;;;;;5020146;28;20442;-82
2024/02/16 06:36:42;;;;;;;2.20;2.00;;;10.30;99.90;;;;;;5018941;28;20466;-81
2024/02/16 06:39:09;;;;;;;3.10;2.37;;;10.40;99.90;;;;;;5034849;28;20559;-80
2024/02/16 06:41:35;;;;;;;2.70;2.20;;;10.30;99.90;;;;;;5035465;28;20447;-81
2024/02/16 06:44:00;;;;;;;3.40;2.30;;;10.30;99.90;;;;;;5035998;28;20895;-81
2024/02/16 06:46:27;;;;;;;2.40;2.20;;;10.30;99.90;;;;;;5035255;28;20414;-80
2024/02/16 06:48:56;;;;;;;2.58;2.00;;;10.30;99.90;;;;;;5033879;28;20387;-79
2024/02/16 06:51:25;;;;;;;3.05;2.17;;;10.30;99.90;;;;;;5026262;28;20459;-79
2024/02/16 06:53:51;;;;;;;4.22;2.20;;;10.30;99.90;;;;;;5036339;28;20449;-76
2024/02/16 06:56:18;;;;;;;2.50;2.30;;;10.30;99.90;;;;;;5036920;28;20383;-80
2024/02/16 06:58:43;;;;;;;3.25;2.00;;;10.30;99.90;;;;;;5022380;28;20380;-79
2024/02/16 07:01:09;;;;;;;3.25;2.15;;;10.30;99.90;;;;;;5036280;28;20390;-81
2024/02/16 07:03:38;;;;;;;3.50;2.30;;;10.40;99.90;;;;;;5034595;28;20379;-81
2024/02/16 07:06:04;;;;;;;2.55;1.92;;;10.40;99.90;;;;;;5018258;28;20391;-83
2024/02/16 07:08:29;;;;;;;3.50;2.10;;;10.40;99.90;;;;;;5035195;28;20404;-81
2024/02/16 07:10:56;;;;;;;3.00;1.92;;;10.40;99.90;;;;;;5039880;28;20867;-81
2024/02/16 07:13:22;;;;;;;3.50;1.98;;;10.40;99.90;;;;;;5016388;28;20391;-79
2024/02/16 07:15:48;;;;;;;4.22;2.25;;;10.50;99.90;;;;;;5035055;28;20442;-84
2024/02/16 07:18:13;;;;;;;3.37;2.50;;;10.60;99.90;;;;;;5037136;28;20747;-82
2024/02/16 07:20:39;;;;;;;2.50;2.30;;;10.40;99.90;;;;;;5038927;28;20462;-83
2024/02/16 07:23:05;;;;;;;3.30;2.38;;;10.50;99.90;;;;;;5022145;28;20399;-83
2024/02/16 07:25:31;;;;;;;3.33;2.60;;;10.40;99.90;;;;;;5049723;28;20426;-84
2024/02/16 07:27:56;;;;;;;2.20;2.00;;;10.30;99.90;;;;;;5019407;28;20391;-84
2024/02/16 07:30:22;;;;;;;4.05;2.60;;;10.50;99.90;;;;;;5020155;28;20383;-82
2024/02/16 07:32:52;;;;;;;2.25;1.80;;;10.30;99.90;;;;;;5022493;28;20399;-82
2024/02/16 07:35:18;;;;;;;3.05;2.03;;;10.50;99.90;;;;;;5018081;28;20985;-83
2024/02/16 07:37:43;;;;;;;2.90;2.28;;;10.80;99.90;;;;;;5019604;28;20398;-83
2024/02/16 07:40:09;;;;;;;4.20;2.00;;;10.80;99.90;;;;;;5021367;28;20461;-83
2024/02/16 07:42:40;;;;;;;3.35;2.10;;;10.80;99.90;;;;;;5034741;28;20398;-83
2024/02/16 07:45:06;;;;;;;3.73;2.37;;;10.90;99.90;;;;;;5017328;28;20394;-83
2024/02/16 07:47:32;;;;;;;2.30;2.10;;;11.00;99.90;;;;;;5018468;28;20823;-83
2024/02/16 07:49:57;;;;;;;3.65;2.50;;;11.00;99.90;;;;;;5017753;28;20391;-83
2024/02/16 07:52:23;;;;;;;3.80;2.70;;;11.00;99.90;;;;;;5018522;28;20394;-83
2024/02/16 07:54:50;;;;;;;3.80;1.90;;;11.00;99.90;;;;;;5035023;28;20418;-80
2024/02/16 07:57:16;;;;;;;5.68;2.50;;;11.20;99.90;;;;;;5024143;28;20908;-80
2024/02/16 07:59:41;;;;;;;2.30;2.10;;;11.40;99.90;;;;;;5053338;28;20385;-80
2024/02/16 08:02:09;;;;;;;2.30;2.10;;;11.40;99.90;;;;;;5015965;28;20906;-81
2024/02/16 08:04:34;;;;;;;3.53;2.05;;;11.50;99.90;;;;;;5034615;28;20445;-86
2024/02/16 08:07:01;;;;;;;3.63;2.47;;;11.40;99.90;;;;;;5015136;28;20391;-77
2024/02/16 08:09:27;;;;;;;4.90;2.70;;;11.20;99.90;;;;;;5032964;28;20398;-78
2024/02/16 08:11:52;;;;;;;3.90;2.58;;;11.50;99.90;;;;;;5032389;28;20899;-78
2024/02/16 08:14:17;;;;;;;3.10;2.30;;;11.80;99.90;;;;;;5046496;28;20401;-78
2024/02/16 08:16:43;;;;;;;2.72;1.63;;;11.70;99.90;;;;;;5027841;28;20449;-79
2024/02/16 08:19:08;;;;;;;1.90;1.60;;;12.60;99.90;;;;;;5015669;28;20391;-78
2024/02/16 08:21:34;;;;;;;2.00;1.30;;;12.80;99.90;;;;;;5033259;28;20375;-79
2024/02/16 08:23:59;;;;;;;1.80;1.30;;;13.70;99.90;;;;;;5033068;28;20513;-78
2024/02/16 08:26:25;;;;;;;1.90;1.30;;;14.20;99.90;;;;;;5015380;28;20483;-79
2024/02/16 08:28:51;;;;;;;2.60;1.30;;;14.50;99.90;;;;;;5032128;28;20391;-77
2024/02/16 08:31:17;;;;;;;1.60;1.40;;;14.70;99.90;;;;;;5032253;28;20393;-77
2024/02/16 08:33:45;;;;;;;2.05;1.10;;;14.40;99.90;;;;;;5034312;28;20394;-79
2024/02/16 08:36:10;;;;;;;1.60;1.27;;;14.10;99.90;;;;;;5058407;22;20487;-80
2024/02/16 08:38:39;;;;;;;2.22;1.30;;;14.70;99.90;;;;;;5051369;28;20801;-80
2024/02/16 08:41:04;;;;;;;1.80;1.10;;;14.60;99.90;;;;;;5052281;28;20393;-80
2024/02/16 08:43:30;;;;;;;1.37;1.00;;;15.20;99.90;;;;;;5050801;28;20516;-80
2024/02/16 08:45:56;;;;;;;2.20;1.20;;;15.50;99.90;;;;;;5051480;28;20461;-80
2024/02/16 08:48:22;;;;;;;1.80;1.30;;;15.20;99.90;;;;;;5055348;28;20404;-80
2024/02/16 08:50:48;;;;;;;3.35;1.20;;;15.30;99.90;;;;;;5071050;28;20817;-80
2024/02/16 08:53:16;;;;;;;2.00;1.20;;;15.20;99.90;;;;;;5073094;28;20395;-80
2024/02/16 08:55:41;;;;;;;2.58;1.17;;;15.60;99.90;;;;;;5071364;28;20914;-80
2024/02/16 08:58:10;;;;;;;1.90;1.00;;;15.70;99.90;;;;;;5053607;28;20397;-80
2024/02/16 09:00:35;;;;;;;2.40;1.10;;;15.40;99.90;;;;;;5061184;28;20393;-80
2024/02/16 09:03:06;;;;;;;2.80;1.20;;;15.70;99.90;;;;;;5060486;28;20397;-80
2024/02/16 09:05:31;;;;;;;1.10;1.00;;;15.70;99.90;;;;;;5057775;28;20464;-79
2024/02/16 09:07:57;;;;;;;1.43;1.20;;;16.70;99.90;;;;;;5055679;28;20476;-79
2024/02/16 09:10:22;;;;;;;2.38;0.95;;;16.00;99.90;;;;;;5055883;28;20397;-79
2024/02/16 09:12:48;;;;;;;4.00;1.60;;;17.40;99.90;;;;;;5049205;28;20424;-78
2024/02/16 09:15:13;;;;;;;2.83;1.23;;;15.90;99.90;;;;;;5056512;28;20502;-78
2024/02/16 09:17:39;;;;;;;2.75;1.08;;;15.90;99.90;;;;;;5049769;28;20439;-79
2024/02/16 09:20:08;;;;;;;1.47;1.20;;;15.90;99.90;;;;;;5043680;28;20431;-79
2024/02/16 09:22:33;;;;;;;5.80;1.40;;;15.90;99.90;;;;;;5052361;28;20401;-79
2024/02/16 09:24:59;;;;;;;1.30;1.10;;;15.90;99.90;;;;;;5048744;28;20383;-79
2024/02/16 09:27:25;;;;;;;2.72;1.40;;;15.80;99.90;;;;;;5045264;28;20462;-79
2024/02/16 09:29:52;;;;;;;3.30;1.27;;;15.60;99.90;;;;;;5041127;28;20414;-79
2024/02/16 09:32:17;;;;;;;4.00;1.40;;;15.70;99.90;;;;;;5034702;28;20895;-78
2024/02/16 09:34:43;;;;;;;2.10;1.30;;;15.90;99.90;;;;;;5042877;28;20409;-78
2024/02/16 09:37:08;;;;;;;3.35;1.27;;;17.60;99.90;;;;;;5052819;28;20409;-78
2024/02/16 09:39:34;;;;;;;3.13;1.30;;;15.90;99.90;;;;;;5047870;28;20396;-79
2024/02/16 09:42:00;;;;;;;1.70;1.50;;;15.90;99.90;;;;;;5037625;28;20379;-79
2024/02/16 09:44:28;;;;;;;2.93;1.23;;;15.60;99.90;;;;;;5031488;28;20394;-79
2024/02/16 09:46:54;;;;;;;2.80;1.60;;;15.70;99.90;;;;;;5052598;28;20393;-79
2024/02/16 09:49:20;;;;;;;2.80;1.20;;;16.10;99.90;;;;;;5036098;28;20395;-79
2024/02/16 09:51:45;;;;;;;4.90;1.40;;;16.10;99.90;;;;;;5047026;28;20473;-79
2024/02/16 09:54:11;;;;;;;1.60;1.50;;;16.10;99.90;;;;;;5048081;28;20473;-78
2024/02/16 09:56:37;;;;;;;2.60;1.40;;;16.10;99.90;;;;;;5046694;28;20381;-78
2024/02/16 09:59:03;;;;;;;4.55;1.40;;;16.10;99.90;;;;;;5055631;28;20397;-79
2024/02/16 10:01:29;;;;;;;1.60;1.20;;;16.00;99.90;;;;;;5052857;28;20401;-79
2024/02/16 10:04:05;;;;;;;2.23;1.20;;;16.10;99.90;;;;;;5045784;28;20982;-79
2024/02/16 10:06:31;;;;;;;1.80;1.30;;;16.00;99.90;;;;;;5040010;28;20396;-79
2024/02/16 10:08:57;;;;;;;2.70;1.30;;;16.10;99.90;;;;;;5043917;28;20394;-79
2024/02/16 10:11:27;;;;;;;2.88;1.20;;;15.90;99.90;;;;;;5055059;28;20901;-79
2024/02/16 10:13:59;;;;;;;1.98;1.25;;;16.40;99.90;;;;;;5057720;28;20427;-79
2024/02/16 10:16:27;;;;;;;2.03;1.30;;;16.20;99.90;;;;;;5055483;28;20379;-78
2024/02/16 10:19:10;;;;;;;7.05;1.90;;;16.20;99.90;;;;;;5054003;28;20381;-79
2024/02/16 10:21:35;;;;;;;4.80;1.50;;;16.20;99.90;;;;;;5043547;28;20476;-79
2024/02/16 10:24:08;;;;;;;2.33;1.40;;;16.10;99.90;;;;;;5055051;28;20899;-79
2024/02/16 10:26:38;;;;;;;3.30;1.50;;;16.40;99.90;;;;;;5043376;28;20434;-78
2024/02/16 10:29:05;;;;;;;3.00;1.60;;;15.90;99.90;;;;;;5036004;28;20448;-79
2024/02/16 10:31:31;;;;;;;3.55;1.30;;;16.10;99.90;;;;;;5035064;28;20394;-79
2024/02/16 10:34:05;;;;;;;2.03;1.40;;;15.50;99.90;;;;;;5033941;28;20426;-79
2024/02/16 10:36:32;;;;;;;2.22;1.50;;;16.30;99.90;;;;;;5046895;28;20404;-79
2024/02/16 10:38:59;;;;;;;1.60;1.10;;;15.70;99.90;;;;;;5036266;28;20399;-79
2024/02/16 10:41:30;;;;;;;4.50;1.70;;;16.80;99.90;;;;;;5059004;28;20398;-79
2024/02/16 10:43:56;;;;;;;2.17;1.35;;;15.60;99.90;;;;;;5046824;28;20394;-79
2024/02/16 10:46:26;;;;;;;1.50;1.30;;;16.00;99.90;;;;;;5054323;28;20385;-78
2024/02/16 10:48:51;;;;;;;4.20;1.47;;;15.60;99.90;;;;;;5055253;28;20564;-79
2024/02/16 10:51:39;;;;;;;3.00;1.70;;;15.90;99.90;;;;;;5054512;28;20472;-79
2024/02/16 10:54:06;;;;;;;3.65;1.55;;;16.00;99.90;;;;;;5054008;28;20777;-79
2024/02/16 10:56:36;;;;;;;3.30;1.60;;;15.90;99.90;;;;;;5056181;28;20812;-79
2024/02/16 10:59:09;;;;;;;3.38;1.90;;;15.90;99.90;;;;;;5055023;28;20401;-79
2024/02/16 11:01:42;;;;;;;3.53;1.55;;;15.70;99.90;;;;;;5051671;28;20389;-79
2024/02/16 11:04:13;;;;;;;1.95;1.25;;;16.00;99.90;;;;;;5053910;28;20476;-79
2024/02/16 11:06:47;;;;;;;4.33;1.67;;;15.90;99.90;;;;;;5053585;28;20597;-78
2024/02/16 11:09:25;;;;;;;3.10;1.50;;;15.50;99.90;;;;;;5054444;28;20390;-78
2024/02/16 11:11:53;;;;;;;3.72;1.60;;;15.90;99.90;;;;;;5054087;28;20378;-78
2024/02/16 11:14:18;;;;;;;2.47;1.70;;;15.90;99.90;;;;;;5065607;28;20767;-78
2024/02/16 11:16:45;;;;;;;3.33;1.70;;;15.90;99.90;;;;;;5057817;28;20393;-78
2024/02/16 11:19:11;;;;;;;2.50;1.30;;;16.20;99.90;;;;;;5053749;28;20385;-78
2024/02/16 11:21:36;;;;;;;2.77;1.50;;;16.00;99.90;;;;;;5053624;28;20869;-79
2024/02/16 11:24:08;;;;;;;3.57;2.00;;;15.80;99.90;;;;;;5054122;28;20392;-79
2024/02/16 11:26:43;;;;;;;3.30;1.98;;;15.90;99.90;;;;;;5052728;28;20397;-79
2024/02/16 11:29:10;;;;;;;1.85;1.20;;;15.90;99.90;;;;;;5054276;28;20865;-79
2024/02/16 11:31:35;;;;;;;3.60;1.58;;;16.00;99.90;;;;;;5054354;28;20476;-79
2024/02/16 11:34:01;;;;;;;4.03;1.73;;;16.10;99.90;;;;;;5053472;28;20441;-79
2024/02/16 11:36:27;;;;;;;2.93;1.80;;;16.10;99.90;;;;;;5054728;28;20398;-78
2024/02/16 11:38:53;;;;;;;3.15;1.52;;;16.30;99.90;;;;;;5062965;28;20412;-79
2024/02/16 11:41:21;;;;;;;2.20;1.67;;;16.30;99.90;;;;;;5078163;28;20390;-79
2024/02/16 11:43:46;;;;;;;3.25;2.00;;;16.20;99.90;;;;;;5077879;28;20377;-79
2024/02/16 11:46:17;;;;;;;1.95;1.38;;;16.00;99.90;;;;;;5059793;28;20446;-79
2024/02/16 11:48:43;;;;;;;3.60;1.90;;;17.10;99.90;;;;;;5048985;28;20455;-79
2024/02/16 11:51:08;;;;;;;4.80;1.70;;;16.30;99.90;;;;;;5055597;28;20405;-79
2024/02/16 11:53:34;;;;;;;2.28;1.67;;;15.60;99.90;;;;;;5039944;28;20711;-79
2024/02/16 11:56:00;;;;;;;3.20;2.00;;;16.10;99.90;;;;;;5047764;28;20401;-79
2024/02/16 11:58:26;;;;;;;3.33;1.80;;;16.30;99.90;;;;;;5038506;28;20803;-79
2024/02/16 12:00:52;;;;;;;3.58;2.10;;;16.30;99.90;;;;;;5036691;28;20380;-79
2024/02/16 12:03:25;;;;;;;3.00;1.70;;;16.30;99.90;;;;;;5049115;28;20484;-79
2024/02/16 12:05:51;;;;;;;2.95;1.95;;;16.10;99.90;;;;;;5051994;28;20735;-79
2024/02/16 12:08:17;;;;;;;3.08;1.95;;;16.20;99.90;;;;;;5046913;28;20395;-79
2024/02/16 12:10:43;;;;;;;3.63;1.77;;;15.90;99.90;;;;;;5046796;28;20535;-79
2024/02/16 12:13:09;;;;;;;4.32;1.90;;;16.20;99.90;;;;;;5055670;28;20476;-79
2024/02/16 12:15:37;;;;;;;2.03;1.80;;;16.20;99.90;;;;;;5047003;28;20864;-79
2024/02/16 12:18:03;;;;;;;2.10;1.73;;;16.20;99.90;;;;;;5049366;28;20389;-79
2024/02/16 12:20:31;;;;;;;4.23;2.10;;;16.30;99.90;;;;;;5055518;28;20397;-79
2024/02/16 12:22:58;;;;;;;3.13;1.80;;;16.20;99.90;;;;;;5055298;28;20385;-79
2024/02/16 12:25:25;;;;;;;3.20;1.95;;;15.80;99.90;;;;;;5056247;28;20389;-79
2024/02/16 12:27:50;;;;;;;4.20;1.80;;;15.70;99.90;;;;;;5055257;28;20381;-79
2024/02/16 12:30:16;;;;;;;5.10;2.10;;;16.00;99.90;;;;;;5053478;28;20389;-79
2024/02/16 12:32:41;;;;;;;5.40;2.03;;;15.90;99.90;;;;;;5058038;28;20390;-79
2024/02/16 12:35:08;;;;;;;4.57;2.10;;;15.70;99.90;;;;;;5060880;28;20500;-79
2024/02/16 12:37:37;;;;;;;4.63;2.10;;;15.70;99.90;;;;;;5058701;28;20401;-79
2024/02/16 12:40:03;;;;;;;2.67;1.80;;;15.70;99.90;;;;;;5061668;28;20396;-79
2024/02/16 12:42:29;;;;;;;3.20;2.40;;;15.70;99.90;;;;;;5078068;28;20380;-79
2024/02/16 12:44:54;;;;;;;3.30;2.10;;;15.60;99.90;;;;;;5077768;28;20389;-79